Goldsboro, Seymour Johnson Air Force Base (KGSB)

NameSeymour Johnson Air Force Base
CityGoldsboro
CountryUnited States
ICAOKGSB
IATAGSB
Altitude33 m
CoordinatesGoogle Map
Live Air TrafficLiveATC.net
METARKGSB 170956Z AUTO 23007KT 10SM CLR 08/04 A2980 RMK AO2 SLP094 T00780044 $
2019-10-17 09:56:00 Wind: Southwest (230°) 3.6 m/s - Visibility: 16093.4 m - Temperature: 8 °C - Dew point: 4 °C - Humidity: 76.1% - Pressure: 1009.14 hPa
Statistics

The table below shows the detailed information of all flights to/from Goldsboro, Seymour Johnson Air Force Base (KGSB).